createdAt,value
2019-03-25T00:00:15.430Z,4.40
2019-03-25T00:05:54.194Z,4.40
2019-03-25T00:11:06.470Z,3.30
2019-03-25T00:13:34.878Z,2.63
2019-03-25T00:19:09.832Z,3.10
2019-03-25T00:21:38.228Z,3.30
2019-03-25T00:24:06.639Z,3.30
2019-03-25T00:27:15.187Z,3.20
2019-03-25T00:30:02.700Z,3.90
2019-03-25T00:32:50.344Z,4.30
2019-03-25T00:40:26.610Z,3.63
2019-03-25T00:43:14.128Z,2.77
2019-03-25T00:46:01.771Z,4.07
2019-03-25T00:48:49.516Z,3.33
2019-03-25T00:51:37.161Z,3.33
2019-03-25T00:54:05.562Z,3.13
2019-03-25T00:56:33.952Z,3.43
2019-03-25T00:59:21.605Z,2.93
2019-03-25T01:01:50.000Z,3.03
2019-03-25T01:04:37.652Z,3.13
2019-03-25T01:07:06.051Z,3.90
2019-03-25T01:09:53.581Z,3.47
2019-03-25T01:12:21.982Z,3.23
2019-03-25T01:14:50.387Z,3.60
2019-03-25T01:17:58.693Z,3.07
2019-03-25T01:20:27.273Z,5.10
2019-03-25T01:22:57.224Z,3.20
2019-03-25T01:25:25.630Z,3.90
2019-03-25T01:28:33.945Z,3.77
2019-03-25T01:31:02.348Z,3.30
2019-03-25T01:36:05.206Z,2.90
2019-03-25T01:41:07.637Z,4.00
2019-03-25T01:43:36.035Z,3.57
2019-03-25T01:46:23.676Z,3.60
2019-03-25T01:49:11.201Z,3.37
2019-03-25T01:51:58.713Z,3.43
2019-03-25T01:54:46.240Z,3.80
2019-03-25T02:00:02.086Z,3.87
2019-03-25T02:02:49.784Z,3.53
2019-03-25T02:05:37.303Z,3.90
2019-03-25T02:08:05.703Z,3.60
2019-03-25T02:10:53.226Z,3.90
2019-03-25T02:13:40.870Z,4.00
2019-03-25T02:21:50.997Z,4.57
2019-03-25T02:24:19.443Z,4.47
2019-03-25T02:26:49.520Z,4.13
2019-03-25T02:29:17.935Z,5.80
2019-03-25T02:32:05.588Z,6.03
2019-03-25T02:34:34.006Z,5.07
2019-03-25T02:37:21.519Z,5.27
2019-03-25T02:39:49.927Z,5.93
2019-03-25T02:45:25.124Z,5.73
2019-03-25T02:47:53.506Z,6.17
2019-03-25T02:50:41.161Z,8.20
2019-03-25T02:53:09.558Z,5.90
2019-03-25T02:55:57.090Z,8.20
2019-03-25T02:58:44.730Z,5.37
2019-03-25T03:01:13.135Z,5.57
2019-03-25T03:03:41.534Z,6.87
2019-03-25T03:06:29.059Z,7.17
2019-03-25T03:08:57.455Z,7.73
2019-03-25T03:11:25.860Z,6.50
2019-03-25T03:16:41.706Z,5.43
2019-03-25T03:19:29.223Z,4.97
2019-03-25T03:25:05.802Z,5.40
2019-03-25T03:27:53.688Z,5.70
2019-03-25T03:30:41.342Z,5.60
2019-03-25T03:33:29.060Z,5.20
2019-03-25T03:38:50.601Z,4.73
2019-03-25T03:41:38.251Z,3.23
2019-03-25T03:44:25.912Z,3.40
2019-03-25T03:47:13.550Z,2.70
2019-03-25T04:01:26.309Z,2.37
2019-03-25T04:09:16.430Z,3.20
2019-03-25T04:11:44.823Z,3.10
2019-03-25T04:14:13.243Z,3.20
2019-03-25T04:16:41.642Z,3.40
2019-03-25T04:19:10.031Z,3.43
2019-03-25T04:24:12.246Z,3.53
2019-03-25T04:26:40.648Z,3.90
2019-03-25T04:29:28.294Z,4.17
2019-03-25T04:32:15.808Z,3.00
2019-03-25T04:37:31.647Z,3.13
2019-03-25T04:40:19.309Z,2.97
2019-03-25T04:42:47.718Z,2.43
2019-03-25T04:45:35.363Z,3.03
2019-03-25T04:48:03.762Z,2.70
2019-03-25T04:50:51.497Z,1.60
2019-03-25T04:53:19.892Z,1.80
2019-03-25T04:56:07.791Z,1.83
2019-03-25T05:01:23.632Z,1.43
2019-03-25T05:04:13.418Z,1.77
2019-03-25T05:06:41.866Z,2.40
2019-03-25T05:09:11.309Z,2.37
2019-03-25T05:11:40.291Z,3.47
2019-03-25T05:14:10.207Z,2.30
2019-03-25T05:16:40.256Z,2.50
2019-03-25T05:19:08.846Z,2.40
2019-03-25T05:21:40.706Z,2.50
2019-03-25T05:24:11.737Z,2.70
2019-03-25T05:26:50.486Z,2.53
2019-03-25T05:29:15.214Z,2.50
2019-03-25T05:31:51.649Z,3.00
2019-03-25T05:34:22.799Z,2.50
2019-03-25T05:36:51.639Z,2.50
2019-03-25T05:39:34.803Z,2.20
2019-03-25T05:41:56.012Z,2.40
2019-03-25T05:44:33.943Z,2.00
2019-03-25T05:47:07.594Z,1.60
2019-03-25T05:49:51.049Z,1.53
2019-03-25T05:52:33.439Z,1.43
2019-03-25T05:55:05.233Z,1.83
2019-03-25T05:57:37.968Z,1.67
2019-03-25T06:00:22.738Z,2.43
2019-03-25T06:02:59.188Z,2.50
2019-03-25T06:05:30.919Z,3.00
2019-03-25T06:08:00.953Z,3.00
2019-03-25T06:10:48.478Z,2.70
2019-03-25T06:13:31.156Z,2.60
2019-03-25T06:16:15.371Z,2.83
2019-03-25T06:18:49.809Z,3.13
2019-03-25T06:21:26.756Z,3.57
2019-03-25T06:24:08.452Z,3.77
2019-03-25T06:26:39.390Z,4.03
2019-03-25T06:32:28.763Z,2.70
2019-03-25T06:41:22.694Z,2.47
2019-03-25T06:43:51.088Z,1.90
2019-03-25T06:46:38.624Z,2.70
2019-03-25T06:49:07.019Z,2.37
2019-03-25T06:51:54.667Z,3.00
2019-03-25T06:54:42.321Z,2.90
2019-03-25T06:59:45.029Z,2.50
2019-03-25T07:02:32.550Z,2.03
2019-03-25T07:05:00.957Z,1.87
2019-03-25T07:08:09.300Z,1.50
2019-03-25T07:11:17.601Z,1.30
2019-03-25T07:13:46.084Z,1.43
2019-03-25T07:16:33.593Z,1.90
2019-03-25T07:19:02.000Z,1.63
2019-03-25T07:24:17.836Z,1.20
2019-03-25T07:26:46.233Z,1.53
2019-03-25T07:29:33.888Z,1.53
2019-03-25T07:32:21.545Z,1.10
2019-03-25T07:35:09.060Z,1.30
2019-03-25T07:37:37.468Z,1.20
2019-03-25T07:40:25.202Z,1.10
2019-03-25T07:43:12.853Z,1.17
2019-03-25T07:45:41.239Z,1.13
2019-03-25T07:48:09.653Z,0.90
2019-03-25T07:50:57.298Z,1.00
2019-03-25T07:55:59.314Z,0.90
2019-03-25T07:58:27.719Z,1.00
2019-03-25T08:01:15.214Z,1.27
2019-03-25T08:03:43.649Z,0.80
2019-03-25T08:06:12.044Z,1.23
2019-03-25T08:08:40.431Z,0.80
2019-03-25T08:17:08.874Z,0.70
2019-03-25T08:19:56.386Z,1.70
2019-03-25T08:22:43.908Z,1.10
2019-03-25T08:25:52.218Z,0.60
2019-03-25T08:33:28.871Z,0.80
2019-03-25T08:36:16.384Z,1.00
2019-03-25T08:38:44.804Z,0.97
2019-03-25T08:41:13.201Z,1.10
2019-03-25T08:48:50.078Z,1.07
2019-03-25T08:51:37.727Z,1.23
2019-03-25T08:54:06.129Z,3.30
2019-03-25T08:56:53.772Z,2.17
2019-03-25T08:59:22.181Z,1.97
2019-03-25T09:02:09.838Z,1.53
2019-03-25T09:07:12.835Z,1.87
2019-03-25T09:09:41.233Z,1.60
2019-03-25T09:14:57.075Z,1.90
2019-03-25T09:17:25.462Z,1.27
2019-03-25T09:19:53.922Z,1.90
2019-03-25T09:25:49.672Z,1.57
2019-03-25T09:28:24.200Z,1.50
2019-03-25T09:31:36.693Z,1.53
2019-03-25T09:34:17.435Z,1.70
2019-03-25T09:36:45.831Z,1.30
2019-03-25T09:39:14.241Z,2.00
2019-03-25T09:42:01.773Z,1.30
2019-03-25T09:44:30.174Z,1.33
2019-03-25T09:50:46.595Z,1.80
2019-03-25T09:53:14.990Z,1.80
2019-03-25T10:00:52.244Z,1.90
2019-03-25T10:03:21.523Z,1.80
2019-03-25T10:05:49.928Z,1.63
2019-03-25T10:08:37.572Z,2.30
2019-03-25T10:11:06.041Z,1.80
2019-03-25T10:13:34.441Z,1.33
2019-03-25T10:16:02.846Z,1.60
2019-03-25T10:18:31.262Z,1.57
2019-03-25T10:20:59.665Z,1.40
2019-03-25T10:24:08.045Z,0.90
2019-03-25T10:26:55.544Z,0.70
2019-03-25T10:29:23.950Z,0.77
2019-03-25T10:31:52.347Z,0.70
2019-03-25T10:34:20.820Z,0.70
2019-03-25T10:36:49.163Z,0.70
2019-03-25T10:39:17.563Z,0.70
2019-03-25T10:41:45.958Z,0.80
2019-03-25T10:44:33.680Z,0.70
2019-03-25T10:47:21.363Z,0.97
2019-03-25T10:49:49.783Z,0.60
2019-03-25T10:52:37.427Z,0.60
2019-03-25T10:55:45.775Z,1.20
2019-03-25T10:58:14.152Z,0.57
2019-03-25T11:01:01.809Z,0.70
2019-03-25T11:06:36.879Z,0.70
2019-03-25T11:09:45.191Z,0.60
2019-03-25T11:12:13.586Z,0.60
2019-03-25T11:15:01.334Z,0.50
2019-03-25T11:23:30.219Z,0.90
2019-03-25T11:28:52.436Z,0.67
2019-03-25T11:31:20.840Z,0.60
2019-03-25T11:36:36.679Z,0.70
2019-03-25T11:39:45.013Z,0.70
2019-03-25T11:42:32.526Z,0.70
2019-03-25T11:45:20.053Z,0.70
2019-03-25T11:48:07.572Z,0.80
2019-03-25T11:50:35.983Z,1.13
2019-03-25T11:53:23.725Z,0.90
2019-03-25T11:58:46.817Z,0.90
2019-03-25T12:03:49.234Z,1.10
2019-03-25T12:06:17.645Z,1.10
2019-03-25T12:09:05.167Z,1.40
2019-03-25T12:11:52.689Z,1.50
2019-03-25T12:14:21.089Z,1.17
2019-03-25T12:17:08.738Z,1.23
2019-03-25T12:23:03.270Z,0.90
2019-03-25T12:25:31.673Z,1.63
2019-03-25T12:28:00.062Z,1.03
2019-03-25T12:30:28.470Z,0.90
2019-03-25T12:36:03.527Z,0.90
2019-03-25T12:38:51.171Z,0.80
2019-03-25T12:41:19.582Z,1.30
2019-03-25T12:43:47.984Z,1.33
2019-03-25T12:46:35.643Z,1.20
2019-03-25T12:49:23.296Z,1.60
2019-03-25T12:52:10.954Z,1.30
2019-03-25T12:54:58.606Z,0.97
2019-03-25T12:57:46.256Z,0.90
2019-03-25T13:00:26.896Z,0.80
2019-03-25T13:02:55.289Z,1.10
2019-03-25T13:05:43.098Z,1.60
2019-03-25T13:08:33.360Z,2.00
2019-03-25T13:11:20.210Z,1.53
2019-03-25T13:13:48.613Z,2.37
2019-03-25T13:16:17.017Z,1.20
2019-03-25T13:19:04.664Z,1.63
2019-03-25T13:21:52.441Z,0.90
2019-03-25T13:24:40.087Z,1.00
2019-03-25T13:29:52.041Z,1.00
2019-03-25T13:34:47.170Z,1.30
2019-03-25T13:37:34.830Z,1.60
2019-03-25T13:40:43.136Z,0.90
2019-03-25T13:45:45.522Z,0.70
2019-03-25T13:50:47.809Z,0.80
2019-03-25T13:53:35.460Z,0.50
2019-03-25T13:56:23.122Z,0.80
2019-03-25T13:59:10.635Z,0.60
2019-03-25T14:01:58.151Z,1.07
2019-03-25T14:04:26.541Z,0.70
2019-03-25T14:06:54.942Z,0.60
2019-03-25T14:09:42.680Z,0.87
2019-03-25T14:12:11.091Z,0.50
2019-03-25T14:14:39.499Z,0.90
2019-03-25T14:17:27.029Z,0.93
2019-03-25T14:20:14.544Z,0.57
2019-03-25T14:23:02.064Z,1.20
2019-03-25T14:25:49.712Z,0.80
2019-03-25T14:28:37.239Z,0.87
2019-03-25T14:31:05.627Z,1.00
2019-03-25T14:33:34.032Z,0.70
2019-03-25T14:36:21.543Z,0.67
2019-03-25T14:41:24.543Z,0.60
2019-03-25T14:43:52.942Z,0.83
2019-03-25T14:49:27.896Z,0.70
2019-03-25T14:51:56.303Z,0.80
2019-03-25T14:54:43.939Z,0.83
2019-03-25T14:57:12.427Z,0.87
2019-03-25T15:00:00.019Z,0.93
2019-03-25T15:02:28.576Z,0.70
2019-03-25T15:04:57.008Z,0.90
2019-03-25T15:07:25.511Z,0.70
2019-03-25T15:10:01.072Z,0.80
2019-03-25T15:12:29.487Z,0.90
2019-03-25T15:17:45.328Z,0.97
2019-03-25T15:20:53.636Z,1.40
2019-03-25T15:23:22.041Z,0.97
2019-03-25T15:25:50.443Z,1.00
2019-03-25T15:28:37.972Z,1.93
2019-03-25T15:31:06.594Z,0.87
2019-03-25T15:33:35.282Z,1.00
2019-03-25T15:36:03.891Z,1.20
2019-03-25T15:38:32.483Z,0.80
2019-03-25T15:41:00.997Z,2.40
2019-03-25T15:43:29.636Z,1.67
2019-03-25T15:45:58.188Z,1.73
2019-03-25T15:48:26.795Z,1.50
2019-03-25T15:50:55.334Z,1.20
2019-03-25T15:53:24.063Z,1.20
2019-03-25T15:55:52.563Z,1.57
2019-03-25T15:58:26.091Z,1.63
2019-03-25T16:00:51.338Z,1.87
2019-03-25T16:06:07.075Z,1.50
2019-03-25T16:08:45.714Z,1.40
2019-03-25T16:14:12.339Z,1.20
2019-03-25T16:16:40.888Z,1.23
2019-03-25T16:19:09.472Z,1.10
2019-03-25T16:21:37.863Z,1.00
2019-03-25T16:24:25.517Z,1.23
2019-03-25T16:26:53.907Z,1.47
2019-03-25T16:29:41.428Z,0.93
2019-03-25T16:32:28.942Z,1.03
2019-03-25T16:34:57.349Z,1.07
2019-03-25T16:37:45.021Z,1.27
2019-03-25T16:40:53.316Z,1.40
2019-03-25T16:43:21.719Z,0.97
2019-03-25T16:46:09.453Z,1.33
2019-03-25T16:48:57.107Z,1.70
2019-03-25T16:51:44.745Z,1.40
2019-03-25T16:54:13.150Z,1.47
2019-03-25T16:57:00.787Z,1.13
2019-03-25T16:59:29.188Z,2.03
2019-03-25T17:02:16.827Z,2.07
2019-03-25T17:07:19.035Z,1.90
2019-03-25T17:10:06.562Z,2.20
2019-03-25T17:12:34.964Z,1.50
2019-03-25T17:17:57.933Z,1.50
2019-03-25T17:20:26.336Z,1.50
2019-03-25T17:23:13.846Z,1.70
2019-03-25T17:26:01.499Z,1.53
2019-03-25T17:28:49.018Z,1.70
2019-03-25T17:31:36.654Z,1.70
2019-03-25T17:34:05.054Z,1.77
2019-03-25T17:41:55.284Z,1.40
2019-03-25T17:44:23.656Z,1.43
2019-03-25T17:46:52.050Z,2.40
2019-03-25T17:49:20.452Z,2.53
2019-03-25T17:51:48.846Z,2.53
2019-03-25T17:54:17.256Z,2.10
2019-03-25T17:56:45.648Z,1.43
2019-03-25T17:59:14.047Z,1.87
2019-03-25T18:01:42.438Z,1.77
2019-03-25T18:04:10.848Z,2.60
2019-03-25T18:06:58.589Z,3.20
2019-03-25T18:09:26.990Z,1.83
2019-03-25T18:12:14.631Z,2.00
2019-03-25T18:14:43.044Z,2.20
2019-03-25T18:17:30.688Z,2.27
2019-03-25T18:20:00.148Z,2.03
2019-03-25T18:22:39.290Z,1.80
2019-03-25T18:24:59.579Z,1.77
2019-03-25T18:27:27.972Z,2.10
2019-03-25T18:29:56.455Z,2.10
2019-03-25T18:32:26.491Z,2.47
2019-03-25T18:34:54.898Z,2.10
2019-03-25T18:37:42.542Z,2.40
2019-03-25T18:40:50.868Z,2.07
2019-03-25T18:43:19.266Z,1.87
2019-03-25T18:46:06.914Z,2.17
2019-03-25T18:48:35.307Z,2.33
2019-03-25T18:51:22.970Z,2.13
2019-03-25T18:54:10.618Z,2.50
2019-03-25T18:56:39.513Z,2.23
2019-03-25T18:59:10.527Z,1.70
2019-03-25T19:02:19.224Z,1.73
2019-03-25T19:05:07.172Z,2.77
2019-03-25T19:07:54.923Z,2.93
2019-03-25T19:10:42.959Z,2.30
2019-03-25T19:13:30.849Z,2.43
2019-03-25T19:18:33.950Z,1.60
2019-03-25T19:21:02.584Z,1.77
2019-03-25T19:26:18.905Z,1.40
2019-03-25T19:28:47.714Z,1.63
2019-03-25T19:31:35.462Z,1.57
2019-03-25T19:34:04.093Z,1.80
2019-03-25T19:36:32.557Z,2.07
2019-03-25T19:39:01.026Z,1.70
2019-03-25T19:41:32.413Z,1.53
2019-03-25T19:43:59.665Z,2.17
2019-03-25T19:46:28.164Z,1.63
2019-03-25T19:49:15.948Z,2.03
2019-03-25T19:51:44.383Z,1.90
2019-03-25T19:54:31.969Z,2.80
2019-03-25T19:57:00.369Z,1.90
2019-03-25T19:59:48.106Z,1.67
2019-03-25T20:02:28.487Z,1.97
2019-03-25T20:04:57.115Z,1.53
2019-03-25T20:07:25.721Z,1.90
2019-03-25T20:12:41.911Z,2.13
2019-03-25T20:15:10.927Z,2.33
2019-03-25T20:17:39.771Z,2.90
2019-03-25T20:20:08.444Z,2.00
2019-03-25T20:22:56.528Z,2.47
2019-03-25T20:25:25.241Z,2.27
2019-03-25T20:27:53.787Z,1.70
2019-03-25T20:33:30.694Z,2.50
2019-03-25T20:38:33.489Z,2.60
2019-03-25T20:41:02.096Z,2.30
2019-03-25T20:43:30.643Z,2.53
2019-03-25T20:45:59.488Z,2.10
2019-03-25T20:48:28.171Z,2.53
2019-03-25T20:51:16.530Z,2.27
2019-03-25T20:53:45.106Z,2.67
2019-03-25T20:56:33.131Z,2.57
2019-03-25T20:59:03.427Z,2.57
2019-03-25T21:01:45.182Z,2.80
2019-03-25T21:04:13.800Z,3.00
2019-03-25T21:06:42.666Z,2.80
2019-03-25T21:09:11.346Z,2.57
2019-03-25T21:11:41.576Z,3.27
2019-03-25T21:14:10.314Z,2.87
2019-03-25T21:16:38.998Z,3.37
2019-03-25T21:19:07.677Z,3.43
2019-03-25T21:21:36.273Z,3.37
2019-03-25T21:24:04.815Z,3.80
2019-03-25T21:26:33.376Z,3.83
2019-03-25T21:29:02.045Z,4.10
2019-03-25T21:31:30.959Z,3.67
2019-03-25T21:33:59.687Z,4.10
2019-03-25T21:36:28.273Z,3.80
2019-03-25T21:38:56.910Z,3.93
2019-03-25T21:41:25.556Z,3.90
2019-03-25T21:43:54.165Z,3.90
2019-03-25T21:46:42.416Z,4.30
2019-03-25T21:49:30.171Z,4.20
2019-03-25T21:51:58.789Z,4.33
2019-03-25T21:54:27.331Z,5.33
2019-03-25T21:56:56.112Z,4.60
2019-03-25T21:59:24.676Z,4.30
2019-03-25T22:02:12.464Z,4.87
2019-03-25T22:04:41.053Z,5.40
2019-03-25T22:07:09.693Z,4.90
2019-03-25T22:09:38.275Z,4.47
2019-03-25T22:12:06.896Z,5.97
2019-03-25T22:14:35.419Z,4.80
2019-03-25T22:17:04.116Z,5.90
2019-03-25T22:19:32.633Z,5.17
2019-03-25T22:24:55.437Z,5.43
2019-03-25T22:27:24.098Z,5.80
2019-03-25T22:32:40.375Z,6.13
2019-03-25T22:35:48.888Z,6.90
2019-03-25T22:38:17.578Z,6.30
2019-03-25T22:40:46.348Z,5.70
2019-03-25T22:43:14.938Z,7.00
2019-03-25T22:45:43.529Z,5.70
2019-03-25T22:48:12.270Z,6.03
2019-03-25T22:51:00.197Z,6.30
2019-03-25T22:53:28.787Z,6.40
2019-03-25T22:55:57.409Z,6.63
2019-03-25T22:58:26.054Z,7.07
2019-03-25T23:00:54.691Z,7.10
2019-03-25T23:03:39.455Z,6.40
2019-03-25T23:06:05.002Z,6.33
2019-03-25T23:08:33.483Z,5.60
2019-03-25T23:11:01.899Z,7.27
2019-03-25T23:13:30.357Z,7.00
2019-03-25T23:21:21.288Z,6.27
2019-03-25T23:23:49.842Z,5.40
2019-03-25T23:26:37.357Z,5.47
2019-03-25T23:29:05.823Z,5.70
2019-03-25T23:31:34.271Z,5.30
2019-03-25T23:34:02.708Z,4.87
2019-03-25T23:37:10.988Z,5.90
2019-03-25T23:39:39.390Z,4.93
2019-03-25T23:42:07.809Z,5.73
2019-03-25T23:44:55.543Z,6.03
2019-03-25T23:47:43.183Z,6.50
2019-03-25T23:50:51.498Z,5.67
2019-03-25T23:53:39.333Z,5.50
2019-03-25T23:56:27.120Z,6.30
2019-03-25T23:59:14.772Z,4.90
